createdAt,value
2022-11-06T00:00:33.664Z,13.68
2022-11-06T00:03:01.229Z,13.45
2022-11-06T00:05:48.155Z,14.23
2022-11-06T00:08:16.292Z,14.70
2022-11-06T00:10:44.059Z,13.52
2022-11-06T00:13:13.965Z,12.88
2022-11-06T00:15:42.588Z,16.05
2022-11-06T00:18:09.922Z,14.57
2022-11-06T00:20:37.639Z,14.82
2022-11-06T00:23:05.053Z,14.23
2022-11-06T00:25:32.250Z,16.83
2022-11-06T00:27:59.444Z,13.98
2022-11-06T00:30:27.379Z,14.07
2022-11-06T00:32:54.687Z,14.48
2022-11-06T00:35:22.546Z,13.30
2022-11-06T00:37:49.892Z,12.55
2022-11-06T00:40:17.156Z,12.88
2022-11-06T00:42:45.203Z,11.25
2022-11-06T00:45:16.199Z,10.85
2022-11-06T00:47:43.564Z,11.07
2022-11-06T00:50:14.455Z,10.18
2022-11-06T00:52:41.689Z,10.00
2022-11-06T00:55:12.948Z,9.65
2022-11-06T00:57:40.200Z,10.35
2022-11-06T01:00:08.615Z,9.60
2022-11-06T01:02:36.022Z,10.85
2022-11-06T01:05:04.602Z,10.82
2022-11-06T01:07:33.652Z,10.18
2022-11-06T01:10:01.832Z,10.15
2022-11-06T01:12:32.572Z,9.38
2022-11-06T01:14:59.940Z,9.23
2022-11-06T01:17:28.957Z,9.38
2022-11-06T01:19:56.487Z,9.10
2022-11-06T01:22:23.955Z,8.55
2022-11-06T01:24:54.984Z,8.68
2022-11-06T01:27:27.255Z,8.43
2022-11-06T01:29:55.583Z,8.55
2022-11-06T01:32:22.933Z,9.25
2022-11-06T01:34:51.508Z,8.98
2022-11-06T01:37:19.240Z,9.20
2022-11-06T01:39:46.428Z,8.60
2022-11-06T01:42:19.486Z,8.15
2022-11-06T01:45:15.897Z,7.85
2022-11-06T01:47:43.296Z,7.63
2022-11-06T01:50:11.184Z,8.50
2022-11-06T01:52:38.567Z,8.10
2022-11-06T01:55:26.624Z,7.90
2022-11-06T01:57:55.227Z,8.20
2022-11-06T02:00:24.797Z,7.88
2022-11-06T02:02:52.317Z,6.80
2022-11-06T02:05:20.008Z,7.90
2022-11-06T02:07:48.156Z,8.52
2022-11-06T02:10:17.281Z,7.50
2022-11-06T02:13:04.486Z,8.15
2022-11-06T02:15:38.318Z,8.43
2022-11-06T02:18:17.497Z,7.95
2022-11-06T02:21:09.795Z,7.15
2022-11-06T02:23:45.711Z,8.07
2022-11-06T02:26:46.513Z,8.82
2022-11-06T02:29:26.323Z,8.63
2022-11-06T02:31:56.382Z,8.52
2022-11-06T02:34:26.590Z,7.82
2022-11-06T02:36:58.325Z,7.78
2022-11-06T02:39:27.981Z,8.20
2022-11-06T02:41:57.713Z,8.98
2022-11-06T02:44:26.602Z,8.40
2022-11-06T02:46:57.511Z,8.75
2022-11-06T02:49:37.271Z,8.82
2022-11-06T02:52:23.717Z,8.43
2022-11-06T02:54:59.348Z,8.90
2022-11-06T02:57:27.270Z,8.50
2022-11-06T02:59:57.582Z,8.75
2022-11-06T03:02:29.506Z,8.73
2022-11-06T03:05:19.377Z,8.27
2022-11-06T03:08:10.187Z,9.13
2022-11-06T03:10:48.097Z,8.55
2022-11-06T03:13:19.938Z,8.77
2022-11-06T03:16:05.312Z,8.65
2022-11-06T03:18:37.180Z,9.18
2022-11-06T03:21:13.538Z,8.20
2022-11-06T03:23:49.268Z,9.43
2022-11-06T03:26:21.484Z,8.77
2022-11-06T03:28:57.116Z,9.32
2022-11-06T03:31:37.377Z,9.00
2022-11-06T03:34:11.637Z,9.15
2022-11-06T03:36:57.048Z,9.88
2022-11-06T03:39:36.874Z,9.63
2022-11-06T03:42:29.821Z,9.20
2022-11-06T03:45:01.090Z,9.80
2022-11-06T03:47:41.983Z,9.40
2022-11-06T03:50:45.580Z,9.93
2022-11-06T03:53:24.069Z,9.52
2022-11-06T03:56:02.842Z,9.25
2022-11-06T03:58:38.131Z,9.63
2022-11-06T04:01:09.054Z,10.27
2022-11-06T04:03:55.350Z,10.13
2022-11-06T04:06:42.507Z,10.65
2022-11-06T04:09:32.148Z,9.25
2022-11-06T04:12:22.416Z,9.98
2022-11-06T04:14:53.306Z,10.43
2022-11-06T04:17:22.855Z,10.70
2022-11-06T04:19:53.228Z,9.98
2022-11-06T04:22:34.815Z,10.20
2022-11-06T04:25:45.314Z,9.82
2022-11-06T04:28:29.084Z,10.38
2022-11-06T04:31:10.104Z,11.10
2022-11-06T04:33:49.887Z,13.50
2022-11-06T04:36:49.051Z,10.82
2022-11-06T04:39:29.004Z,9.95
2022-11-06T04:42:16.563Z,10.70
2022-11-06T04:44:49.358Z,10.80
2022-11-06T04:47:19.597Z,11.13
2022-11-06T04:49:52.406Z,10.38
2022-11-06T04:52:25.891Z,11.15
2022-11-06T04:54:55.206Z,10.07
2022-11-06T04:57:25.808Z,11.27
2022-11-06T04:59:54.062Z,11.45
2022-11-06T05:02:21.276Z,11.43
2022-11-06T05:04:48.697Z,10.63
2022-11-06T05:07:17.655Z,10.57
2022-11-06T05:09:48.341Z,14.48
2022-11-06T05:12:19.682Z,12.25
2022-11-06T05:14:47.908Z,14.13
2022-11-06T05:17:15.444Z,13.88
2022-11-06T05:19:44.735Z,14.50
2022-11-06T05:22:30.793Z,15.52
2022-11-06T05:24:58.558Z,14.02
2022-11-06T05:27:34.925Z,13.57
2022-11-06T05:30:02.494Z,14.40
2022-11-06T05:32:31.332Z,14.38
2022-11-06T05:34:58.672Z,13.68
2022-11-06T05:37:27.562Z,14.55
2022-11-06T05:39:54.767Z,14.23
2022-11-06T05:42:22.081Z,13.57
2022-11-06T05:44:50.749Z,14.27
2022-11-06T05:47:18.219Z,13.60
2022-11-06T05:49:46.500Z,13.30
2022-11-06T05:52:13.756Z,14.68
2022-11-06T05:54:41.545Z,13.25
2022-11-06T05:57:09.031Z,12.88
2022-11-06T05:59:36.924Z,13.00
2022-11-06T06:02:04.540Z,13.48
2022-11-06T06:04:32.210Z,12.60
2022-11-06T06:08:24.513Z,12.45
2022-11-06T06:14:25.654Z,11.85
2022-11-06T06:16:55.523Z,12.80
2022-11-06T06:19:23.999Z,13.40
2022-11-06T06:21:51.683Z,14.75
2022-11-06T06:24:19.066Z,13.48
2022-11-06T06:26:47.001Z,14.13
2022-11-06T06:29:16.780Z,12.60
2022-11-06T06:31:44.287Z,13.45
2022-11-06T06:34:11.618Z,13.68
2022-11-06T06:36:39.385Z,14.82
2022-11-06T06:39:06.574Z,14.63
2022-11-06T06:41:40.964Z,13.88
2022-11-06T06:44:09.275Z,14.95
2022-11-06T06:46:54.310Z,13.10
2022-11-06T06:49:21.616Z,13.32
2022-11-06T06:51:49.999Z,12.07
2022-11-06T06:54:17.315Z,13.23
2022-11-06T06:56:48.422Z,15.15
2022-11-06T06:59:15.955Z,13.45
2022-11-06T07:01:44.142Z,13.88
2022-11-06T07:04:11.903Z,12.88
2022-11-06T07:06:40.508Z,12.63
2022-11-06T07:09:08.498Z,13.18
2022-11-06T07:11:36.453Z,13.23
2022-11-06T07:14:04.477Z,11.98
2022-11-06T07:16:33.650Z,12.25
2022-11-06T07:19:01.186Z,10.57
2022-11-06T07:21:29.156Z,10.60
2022-11-06T07:24:00.960Z,10.45
2022-11-06T07:26:32.946Z,14.15
2022-11-06T07:32:02.805Z,12.13
2022-11-06T07:34:42.464Z,10.00
2022-11-06T07:37:15.575Z,11.13
2022-11-06T07:39:43.437Z,10.38
2022-11-06T07:42:13.052Z,11.32
2022-11-06T07:44:45.139Z,11.00
2022-11-06T07:47:20.170Z,10.85
2022-11-06T07:49:50.957Z,10.82
2022-11-06T07:52:22.596Z,10.52
2022-11-06T07:54:49.931Z,11.40
2022-11-06T07:57:18.850Z,11.52
2022-11-06T07:59:46.242Z,10.80
2022-11-06T08:02:14.147Z,10.00
2022-11-06T08:04:43.502Z,9.90
2022-11-06T08:13:51.013Z,9.82
2022-11-06T08:17:56.379Z,10.63
2022-11-06T08:20:35.460Z,10.02
2022-11-06T08:23:09.586Z,9.85
2022-11-06T08:25:47.301Z,11.13
2022-11-06T08:28:18.459Z,10.65
2022-11-06T08:30:46.138Z,9.68
2022-11-06T08:37:29.507Z,8.95
2022-11-06T08:40:10.089Z,8.68
2022-11-06T08:42:50.797Z,9.23
2022-11-06T08:45:22.844Z,10.43
2022-11-06T08:47:55.908Z,9.65
2022-11-06T08:50:28.490Z,9.68
2022-11-06T08:56:03.153Z,10.00
2022-11-06T08:58:33.245Z,9.75
2022-11-06T09:01:00.768Z,10.10
2022-11-06T09:03:30.788Z,10.18
2022-11-06T09:06:01.887Z,10.48
2022-11-06T09:08:30.386Z,11.10
2022-11-06T09:10:59.052Z,10.68
2022-11-06T09:13:27.280Z,10.25
2022-11-06T09:15:55.557Z,9.63
2022-11-06T09:18:25.680Z,8.95
2022-11-06T09:20:57.442Z,10.30
2022-11-06T09:23:25.580Z,8.45
2022-11-06T09:25:52.908Z,8.75
2022-11-06T09:28:20.184Z,8.98
2022-11-06T09:30:47.513Z,8.55
2022-11-06T09:33:15.480Z,9.00
2022-11-06T09:35:43.409Z,8.38
2022-11-06T09:38:12.347Z,8.48
2022-11-06T09:45:02.534Z,8.55
2022-11-06T09:47:38.100Z,12.13
2022-11-06T09:50:16.081Z,7.80
2022-11-06T09:53:12.634Z,7.63
2022-11-06T09:55:44.005Z,6.68
2022-11-06T09:58:43.879Z,9.13
2022-11-06T10:01:29.611Z,7.90
2022-11-06T10:04:03.368Z,9.55
2022-11-06T10:06:35.769Z,8.82
2022-11-06T10:09:13.440Z,7.75
2022-11-06T10:12:03.076Z,8.55
2022-11-06T10:14:42.585Z,7.30
2022-11-06T10:18:07.716Z,9.18
2022-11-06T10:20:42.442Z,7.80
2022-11-06T10:23:54.214Z,7.57
2022-11-06T10:26:55.939Z,8.63
2022-11-06T10:29:47.970Z,8.07
2022-11-06T10:32:48.151Z,7.18
2022-11-06T10:35:55.412Z,8.40
2022-11-06T10:38:26.799Z,6.78
2022-11-06T10:40:55.502Z,7.03
2022-11-06T10:43:49.453Z,7.20
2022-11-06T10:46:36.398Z,6.90
2022-11-06T10:49:12.462Z,7.47
2022-11-06T10:52:03.281Z,6.05
2022-11-06T10:54:55.852Z,5.80
2022-11-06T10:57:48.932Z,7.90
2022-11-06T11:00:16.678Z,6.43
2022-11-06T11:03:07.680Z,6.40
2022-11-06T11:05:42.793Z,6.05
2022-11-06T11:08:32.131Z,6.47
2022-11-06T11:11:29.893Z,5.95
2022-11-06T11:14:03.069Z,6.40
2022-11-06T11:16:38.261Z,6.00
2022-11-06T11:19:24.088Z,6.20
2022-11-06T11:22:18.565Z,6.55
2022-11-06T11:25:07.164Z,6.80
2022-11-06T11:27:45.466Z,6.82
2022-11-06T11:30:31.977Z,6.68
2022-11-06T11:32:59.592Z,6.10
2022-11-06T11:35:30.883Z,6.60
2022-11-06T11:38:13.064Z,6.20
2022-11-06T11:40:41.044Z,7.05
2022-11-06T11:43:26.904Z,6.47
2022-11-06T11:46:04.972Z,5.90
2022-11-06T11:48:52.337Z,5.82
2022-11-06T11:51:39.539Z,5.85
2022-11-06T11:54:08.441Z,6.63
2022-11-06T11:57:03.574Z,8.07
2022-11-06T11:59:55.290Z,6.97
2022-11-06T12:02:29.699Z,9.98
2022-11-06T12:05:08.429Z,7.15
2022-11-06T12:07:58.534Z,6.60
2022-11-06T12:10:34.298Z,7.93
2022-11-06T12:13:23.736Z,10.25
2022-11-06T12:16:17.114Z,8.32
2022-11-06T12:18:53.410Z,7.18
2022-11-06T12:21:35.814Z,6.85
2022-11-06T12:24:07.209Z,10.63
2022-11-06T12:26:54.390Z,7.85
2022-11-06T12:29:46.543Z,7.35
2022-11-06T12:32:24.560Z,7.20
2022-11-06T12:34:57.557Z,6.13
2022-11-06T12:37:44.344Z,7.20
2022-11-06T12:40:47.171Z,7.38
2022-11-06T12:43:20.903Z,7.22
2022-11-06T12:46:09.209Z,7.97
2022-11-06T12:48:46.143Z,6.95
2022-11-06T12:51:52.245Z,8.82
2022-11-06T12:54:57.437Z,9.77
2022-11-06T12:57:38.469Z,9.70
2022-11-06T13:00:52.247Z,10.55
2022-11-06T13:03:26.650Z,10.43
2022-11-06T13:06:12.033Z,10.05
2022-11-06T13:08:54.407Z,9.50
2022-11-06T13:11:47.119Z,10.50
2022-11-06T13:14:27.926Z,8.65
2022-11-06T13:17:06.055Z,9.13
2022-11-06T13:20:03.191Z,9.38
2022-11-06T13:23:05.277Z,9.55
2022-11-06T13:25:57.146Z,11.02
2022-11-06T13:29:05.719Z,9.13
2022-11-06T13:31:39.648Z,10.93
2022-11-06T13:34:20.838Z,11.27
2022-11-06T13:36:48.638Z,9.57
2022-11-06T13:39:21.419Z,8.32
2022-11-06T13:41:55.516Z,9.63
2022-11-06T13:44:23.555Z,8.25
2022-11-06T13:47:01.439Z,9.00
2022-11-06T13:49:29.443Z,8.80
2022-11-06T13:52:04.106Z,9.13
2022-11-06T13:54:53.268Z,9.70
2022-11-06T13:57:39.256Z,10.73
2022-11-06T14:00:16.361Z,10.32
2022-11-06T14:03:06.155Z,13.43
2022-11-06T14:05:54.070Z,12.02
2022-11-06T14:08:33.722Z,11.75
2022-11-06T14:11:37.296Z,9.50
2022-11-06T14:14:07.296Z,9.70
2022-11-06T14:16:40.805Z,10.18
2022-11-06T14:19:46.337Z,9.70
2022-11-06T14:22:39.648Z,9.93
2022-11-06T14:25:38.170Z,9.65
2022-11-06T14:28:43.010Z,7.88
2022-11-06T14:31:50.311Z,7.72
2022-11-06T14:34:54.835Z,9.75
2022-11-06T14:37:31.795Z,8.82
2022-11-06T14:40:22.331Z,9.18
2022-11-06T14:43:30.482Z,10.63
2022-11-06T14:46:33.213Z,9.88
2022-11-06T14:49:50.086Z,10.15
2022-11-06T14:52:44.661Z,10.23
2022-11-06T14:55:31.440Z,9.63
2022-11-06T14:58:36.427Z,9.18
2022-11-06T15:01:32.473Z,9.05
2022-11-06T15:04:00.757Z,10.48
2022-11-06T15:06:46.885Z,11.60
2022-11-06T15:09:23.148Z,9.70
2022-11-06T15:12:13.345Z,10.10
2022-11-06T15:14:42.902Z,10.55
2022-11-06T15:17:24.288Z,12.80
2022-11-06T15:20:15.955Z,11.43
2022-11-06T15:23:39.273Z,10.20
2022-11-06T15:26:57.590Z,10.75
2022-11-06T15:29:46.436Z,10.55
2022-11-06T15:32:18.044Z,11.40
2022-11-06T15:35:05.151Z,14.27
2022-11-06T15:38:15.684Z,12.85
2022-11-06T15:40:45.691Z,13.23
2022-11-06T15:43:28.770Z,14.10
2022-11-06T15:46:25.797Z,13.68
2022-11-06T15:49:09.689Z,15.30
2022-11-06T15:51:39.343Z,13.88
2022-11-06T15:54:26.843Z,13.88
2022-11-06T15:56:54.443Z,14.27
2022-11-06T15:59:22.915Z,15.80
2022-11-06T16:01:57.754Z,14.90
2022-11-06T16:04:32.187Z,15.23
2022-11-06T16:07:26.028Z,15.18
2022-11-06T16:09:54.037Z,14.80
2022-11-06T16:12:23.592Z,15.43
2022-11-06T16:14:54.828Z,15.15
2022-11-06T16:17:28.576Z,15.20
2022-11-06T16:19:59.869Z,14.93
2022-11-06T16:22:34.659Z,13.75
2022-11-06T16:25:06.372Z,15.65
2022-11-06T16:27:40.379Z,14.77
2022-11-06T16:30:24.670Z,13.80
2022-11-06T16:37:04.357Z,14.63
2022-11-06T16:39:56.920Z,12.57
2022-11-06T16:42:38.981Z,12.32
2022-11-06T16:45:24.730Z,14.05
2022-11-06T16:48:23.585Z,11.55
2022-11-06T16:50:54.764Z,11.82
2022-11-06T16:53:25.316Z,12.05
2022-11-06T16:56:00.692Z,13.55
2022-11-06T16:58:31.940Z,12.05
2022-11-06T17:01:06.978Z,11.88
2022-11-06T17:03:42.642Z,11.75
2022-11-06T17:06:23.397Z,12.05
2022-11-06T17:09:09.417Z,13.38
2022-11-06T17:11:37.403Z,12.50
2022-11-06T17:14:14.829Z,11.95
2022-11-06T17:17:14.754Z,11.32
2022-11-06T17:19:47.925Z,10.98
2022-11-06T17:22:17.831Z,12.38
2022-11-06T17:24:46.294Z,11.82
2022-11-06T17:27:15.706Z,12.55
2022-11-06T17:29:46.078Z,10.45
2022-11-06T17:32:43.702Z,12.13
2022-11-06T17:35:14.736Z,12.10
2022-11-06T17:37:47.216Z,11.23
2022-11-06T17:40:14.501Z,12.05
2022-11-06T17:42:47.563Z,13.13
2022-11-06T17:45:23.525Z,10.55
2022-11-06T17:47:51.073Z,12.32
2022-11-06T17:50:21.929Z,11.02
2022-11-06T17:52:49.332Z,12.63
2022-11-06T17:56:27.676Z,13.10
2022-11-06T17:58:58.412Z,12.63
2022-11-06T18:01:29.767Z,10.18
2022-11-06T18:04:07.669Z,9.77
2022-11-06T18:06:58.781Z,10.93
2022-11-06T18:09:32.784Z,10.65
2022-11-06T18:12:10.598Z,8.70
2022-11-06T18:14:40.046Z,8.27
2022-11-06T18:17:12.441Z,8.20
2022-11-06T18:19:57.436Z,9.73
2022-11-06T18:22:27.340Z,9.63
2022-11-06T18:24:55.429Z,9.38
2022-11-06T18:27:23.233Z,8.88
2022-11-06T18:33:24.866Z,8.77
2022-11-06T18:40:35.569Z,8.60
2022-11-06T18:43:16.355Z,9.15
2022-11-06T18:45:45.628Z,9.70
2022-11-06T18:48:33.896Z,10.00
2022-11-06T18:51:33.944Z,8.90
2022-11-06T18:54:06.847Z,9.57
2022-11-06T19:10:20.785Z,10.35
2022-11-06T19:13:27.746Z,10.00
2022-11-06T19:23:28.639Z,10.25
2022-11-06T19:26:04.589Z,10.55
2022-11-06T19:28:51.853Z,10.43
2022-11-06T19:31:24.497Z,9.25
2022-11-06T19:34:04.268Z,10.05
2022-11-06T19:36:32.322Z,9.20
2022-11-06T19:39:00.239Z,10.27
2022-11-06T19:41:29.378Z,10.88
2022-11-06T19:43:58.892Z,10.85
2022-11-06T19:46:31.080Z,9.10
2022-11-06T19:49:05.662Z,10.85
2022-11-06T19:51:34.340Z,9.20
2022-11-06T19:54:03.267Z,10.35
2022-11-06T19:56:30.624Z,8.77
2022-11-06T19:59:02.805Z,8.80
2022-11-06T20:01:34.011Z,9.38
2022-11-06T20:04:01.899Z,9.20
2022-11-06T20:06:29.497Z,9.73
2022-11-06T20:08:59.591Z,10.50
2022-11-06T20:11:28.457Z,9.35
2022-11-06T20:13:57.041Z,8.45
2022-11-06T20:16:26.021Z,9.15
2022-11-06T20:18:59.488Z,9.27
2022-11-06T20:21:28.710Z,9.73
2022-11-06T20:23:58.136Z,8.50
2022-11-06T20:26:26.600Z,9.32
2022-11-06T20:28:56.767Z,12.32
2022-11-06T20:31:26.434Z,9.95
2022-11-06T20:33:54.348Z,8.38
2022-11-06T20:36:28.318Z,9.40
2022-11-06T20:38:58.301Z,8.25
2022-11-06T20:41:28.701Z,8.82
2022-11-06T20:43:56.686Z,8.63
2022-11-06T20:46:28.216Z,9.30
2022-11-06T20:48:57.874Z,8.30
2022-11-06T20:51:26.826Z,9.40
2022-11-06T20:53:54.721Z,9.88
2022-11-06T20:56:25.321Z,9.05
2022-11-06T20:58:58.431Z,9.27
2022-11-06T21:01:29.381Z,9.20
2022-11-06T21:03:59.220Z,12.10
2022-11-06T21:06:27.254Z,10.52
2022-11-06T21:08:55.860Z,10.25
2022-11-06T21:11:28.393Z,10.65
2022-11-06T21:13:56.508Z,10.13
2022-11-06T21:16:35.258Z,12.73
2022-11-06T21:19:04.089Z,11.77
2022-11-06T21:21:37.222Z,10.48
2022-11-06T21:24:08.861Z,9.32
2022-11-06T21:26:38.276Z,10.07
2022-11-06T21:29:10.833Z,9.30
2022-11-06T21:31:48.578Z,10.35
2022-11-06T21:34:17.872Z,9.95
2022-11-06T21:36:51.441Z,9.80
2022-11-06T21:39:19.892Z,9.57
2022-11-06T21:41:50.069Z,9.48
2022-11-06T21:44:36.434Z,9.57
2022-11-06T21:47:11.282Z,8.98
2022-11-06T21:49:40.547Z,10.02
2022-11-06T21:52:29.306Z,10.68
2022-11-06T21:55:15.773Z,9.60
2022-11-06T21:57:46.456Z,9.75
2022-11-06T22:00:14.674Z,10.18
2022-11-06T22:02:42.337Z,9.68
2022-11-06T22:05:09.917Z,10.32
2022-11-06T22:07:37.334Z,10.45
2022-11-06T22:10:09.224Z,9.38
2022-11-06T22:12:36.753Z,11.23
2022-11-06T22:15:07.427Z,12.05
2022-11-06T22:17:36.464Z,12.15
2022-11-06T22:20:04.382Z,9.55
2022-11-06T22:22:31.824Z,10.68
2022-11-06T22:24:59.045Z,10.48
2022-11-06T22:27:26.298Z,11.10
2022-11-06T22:29:53.496Z,10.60
2022-11-06T22:32:21.337Z,11.90
2022-11-06T22:34:48.610Z,11.93
2022-11-06T22:37:17.895Z,11.75
2022-11-06T22:39:50.914Z,13.35
2022-11-06T22:42:21.047Z,12.35
2022-11-06T22:44:48.476Z,12.55
2022-11-06T22:47:16.083Z,12.48
2022-11-06T22:49:43.336Z,11.57
2022-11-06T22:52:10.732Z,9.85
2022-11-06T22:54:38.452Z,9.93
2022-11-06T22:57:10.879Z,8.77
2022-11-06T22:59:40.282Z,9.45
2022-11-06T23:03:10.199Z,7.30
2022-11-06T23:05:41.126Z,6.57
2022-11-06T23:08:09.696Z,6.85
2022-11-06T23:10:39.962Z,7.05
2022-11-06T23:13:07.294Z,6.63
2022-11-06T23:15:35.473Z,7.55
2022-11-06T23:18:05.564Z,7.03
2022-11-06T23:20:34.549Z,6.85
2022-11-06T23:23:03.260Z,7.03
2022-11-06T23:25:31.309Z,6.60
2022-11-06T23:28:00.701Z,6.30
2022-11-06T23:30:30.104Z,6.68
2022-11-06T23:32:57.358Z,6.63
2022-11-06T23:35:29.370Z,7.10
2022-11-06T23:37:59.711Z,5.47
2022-11-06T23:40:26.909Z,6.15
2022-11-06T23:42:57.236Z,6.60
2022-11-06T23:45:43.074Z,6.50
2022-11-06T23:48:14.036Z,6.32
2022-11-06T23:50:41.861Z,7.10
2022-11-06T23:53:09.057Z,6.15
2022-11-06T23:55:36.338Z,6.05
2022-11-06T23:58:05.263Z,6.68
